Time;durP1;ratioP1;P1;durP2;ratioP2;P2;SDS_P1;SDS_P2;PMS_P1;PMS_P2;Temp;Humidity;BMP_temperature;BMP_pressure;BME280_temperature;BME280_humidity;BME280_pressure;Samples;Min_cycle;Max_cycle;Signal;HPM_P1;HPM_P2
2021/08/02 00:00:09;;;;;;;2.17;1.30;;;19.40;65.30;;;;;;5058955;28;20046;-79
2021/08/02 00:03:04;;;;;;;1.95;1.10;;;19.40;65.20;;;;;;5065430;28;20034;-79
2021/08/02 00:05:35;;;;;;;1.58;1.13;;;19.40;65.40;;;;;;5038811;28;20031;-79
2021/08/02 00:08:02;;;;;;;1.02;0.90;;;19.30;65.30;;;;;;5063706;28;20029;-80
2021/08/02 00:10:33;;;;;;;1.30;1.00;;;19.30;65.30;;;;;;5065640;28;20071;-80
2021/08/02 00:13:03;;;;;;;1.00;0.90;;;19.30;65.40;;;;;;5064157;28;20033;-79
2021/08/02 00:15:29;;;;;;;1.40;1.05;;;19.30;65.50;;;;;;5057665;28;20027;-80
2021/08/02 00:17:55;;;;;;;1.52;1.17;;;19.20;65.40;;;;;;5051507;28;20033;-79
2021/08/02 00:20:29;;;;;;;2.08;1.00;;;19.20;65.50;;;;;;5061665;28;20429;-80
2021/08/02 00:22:57;;;;;;;1.08;1.00;;;19.20;65.60;;;;;;5061566;28;20024;-80
2021/08/02 00:25:24;;;;;;;1.20;1.10;;;19.20;65.50;;;;;;5050944;28;20086;-80
2021/08/02 00:27:52;;;;;;;0.93;0.93;;;19.20;65.60;;;;;;5062709;28;20032;-80
2021/08/02 00:30:18;;;;;;;0.93;0.88;;;19.20;65.60;;;;;;5062349;28;20029;-80
2021/08/02 00:32:44;;;;;;;1.55;1.05;;;19.20;65.60;;;;;;5050050;28;20025;-79
2021/08/02 00:35:10;;;;;;;1.20;0.93;;;19.10;65.60;;;;;;5034588;28;20442;-80
2021/08/02 00:37:41;;;;;;;0.82;0.82;;;19.10;65.60;;;;;;5052386;28;20067;-80
2021/08/02 00:40:30;;;;;;;1.15;1.00;;;19.10;65.60;;;;;;5067821;28;20480;-79
2021/08/02 00:43:16;;;;;;;1.23;1.00;;;19.10;65.80;;;;;;5022683;28;20032;-80
2021/08/02 00:45:45;;;;;;;1.02;1.00;;;19.10;65.70;;;;;;5044189;28;20128;-79
2021/08/02 00:48:16;;;;;;;1.30;0.95;;;19.10;65.70;;;;;;5048016;28;20120;-79
2021/08/02 00:50:48;;;;;;;1.15;1.08;;;19.10;65.80;;;;;;5060561;28;20059;-81
2021/08/02 00:53:21;;;;;;;1.25;1.15;;;19.00;65.80;;;;;;5062707;28;20036;-81
2021/08/02 00:55:52;;;;;;;1.55;1.10;;;19.00;65.90;;;;;;5061575;28;20052;-79
2021/08/02 00:58:22;;;;;;;1.02;0.93;;;19.00;66.50;;;;;;5062601;28;20090;-79
2021/08/02 01:00:50;;;;;;;1.08;0.98;;;19.00;65.90;;;;;;5037674;28;20473;-80
2021/08/02 01:03:17;;;;;;;1.27;1.17;;;19.00;65.90;;;;;;5049243;28;20071;-80
2021/08/02 01:05:49;;;;;;;1.77;1.13;;;19.00;65.90;;;;;;5048361;28;20411;-79
2021/08/02 01:08:23;;;;;;;1.48;1.20;;;19.00;66.00;;;;;;5059505;28;20338;-79
2021/08/02 01:10:54;;;;;;;1.48;1.17;;;18.90;66.00;;;;;;5060706;28;20082;-79
2021/08/02 01:13:22;;;;;;;1.25;1.15;;;18.90;66.00;;;;;;5047739;28;20028;-79
2021/08/02 01:15:52;;;;;;;1.10;1.00;;;18.90;66.00;;;;;;5066090;28;20029;-80
2021/08/02 01:18:19;;;;;;;1.13;1.02;;;18.90;66.00;;;;;;5068031;28;20115;-80
2021/08/02 01:20:48;;;;;;;1.50;1.30;;;19.00;66.10;;;;;;5049248;28;20028;-80
2021/08/02 01:23:15;;;;;;;1.65;1.05;;;18.90;66.00;;;;;;5062210;28;20451;-81
2021/08/02 01:25:40;;;;;;;1.25;1.10;;;18.90;66.10;;;;;;5051562;28;20094;-79
2021/08/02 01:28:13;;;;;;;1.30;1.00;;;18.90;66.10;;;;;;5062124;28;20028;-80
2021/08/02 01:30:46;;;;;;;2.25;1.17;;;18.90;66.20;;;;;;5064419;28;20029;-79
2021/08/02 01:33:13;;;;;;;1.20;1.10;;;18.90;66.20;;;;;;5062803;28;20020;-79
2021/08/02 01:35:40;;;;;;;1.02;1.00;;;18.80;66.10;;;;;;5047741;28;20021;-81
2021/08/02 01:38:08;;;;;;;1.30;1.20;;;18.80;66.20;;;;;;5033881;28;20123;-80
2021/08/02 01:40:34;;;;;;;1.10;1.00;;;18.80;66.20;;;;;;5046404;28;20033;-79
2021/08/02 01:43:04;;;;;;;2.67;1.30;;;18.80;66.20;;;;;;5041147;28;20470;-80
2021/08/02 01:45:48;;;;;;;1.25;1.10;;;18.80;66.20;;;;;;5064753;28;20048;-79
2021/08/02 01:48:41;;;;;;;1.70;1.30;;;18.80;66.30;;;;;;5062448;28;20033;-80
2021/08/02 01:51:17;;;;;;;1.98;1.40;;;18.80;66.30;;;;;;5068944;28;20020;-79
2021/08/02 01:53:58;;;;;;;1.35;1.20;;;18.80;66.30;;;;;;5054111;28;20043;-80
2021/08/02 01:56:31;;;;;;;1.98;1.02;;;18.80;66.40;;;;;;5069154;28;20044;-79
2021/08/02 01:59:11;;;;;;;1.70;1.17;;;18.70;66.30;;;;;;5062390;28;20021;-79
2021/08/02 02:02:08;;;;;;;2.03;1.20;;;18.80;66.40;;;;;;5068002;28;20028;-79
2021/08/02 02:04:39;;;;;;;1.48;1.10;;;18.70;66.50;;;;;;5066655;28;20021;-79
2021/08/02 02:07:11;;;;;;;1.85;1.08;;;18.70;66.40;;;;;;5062514;28;20090;-79
2021/08/02 02:09:49;;;;;;;1.30;1.17;;;18.70;66.40;;;;;;5069681;28;20108;-79
2021/08/02 02:12:18;;;;;;;1.25;1.15;;;18.70;66.50;;;;;;5050306;28;20494;-80
2021/08/02 02:14:45;;;;;;;1.73;1.20;;;18.70;66.50;;;;;;5055704;28;20012;-78
2021/08/02 02:17:21;;;;;;;2.10;1.35;;;18.70;66.50;;;;;;5047540;28;20048;-79
2021/08/02 02:19:50;;;;;;;1.52;1.30;;;18.70;66.50;;;;;;5066150;28;20029;-80
2021/08/02 02:22:17;;;;;;;1.27;1.17;;;18.70;66.60;;;;;;5067655;28;20534;-80
2021/08/02 02:24:44;;;;;;;2.00;1.42;;;18.70;66.50;;;;;;5049330;28;20481;-80
2021/08/02 02:27:14;;;;;;;2.33;1.40;;;18.60;66.50;;;;;;5064008;28;20047;-79
2021/08/02 02:29:48;;;;;;;1.30;1.20;;;18.60;66.60;;;;;;5064314;28;20071;-79
2021/08/02 02:32:16;;;;;;;1.45;1.30;;;18.60;66.50;;;;;;5065441;28;20720;-79
2021/08/02 02:34:42;;;;;;;1.88;1.33;;;18.60;66.60;;;;;;5069984;28;20020;-81
2021/08/02 02:37:08;;;;;;;1.60;1.20;;;18.60;66.60;;;;;;5043677;28;20051;-79
2021/08/02 02:39:36;;;;;;;2.33;1.50;;;18.60;66.70;;;;;;5044468;28;20029;-80
2021/08/02 02:42:05;;;;;;;1.75;1.30;;;18.60;66.70;;;;;;5064043;28;20034;-79
2021/08/02 02:44:32;;;;;;;1.98;1.15;;;18.60;66.70;;;;;;5056486;28;20432;-80
2021/08/02 02:47:00;;;;;;;2.45;1.50;;;18.60;66.70;;;;;;5060067;28;20086;-79
2021/08/02 02:49:27;;;;;;;2.38;1.40;;;18.60;66.70;;;;;;5053442;28;20029;-80
2021/08/02 02:51:54;;;;;;;2.05;1.27;;;18.60;66.70;;;;;;5063351;28;20071;-79
2021/08/02 02:54:21;;;;;;;1.65;1.30;;;18.60;66.80;;;;;;5045033;28;20449;-79
2021/08/02 02:56:53;;;;;;;2.63;1.35;;;18.50;66.70;;;;;;5061094;28;20049;-79
2021/08/02 02:59:19;;;;;;;2.05;1.40;;;18.60;66.80;;;;;;5048944;28;20037;-79
2021/08/02 03:01:47;;;;;;;1.90;1.45;;;18.60;66.80;;;;;;5011340;28;20160;-80
2021/08/02 03:04:25;;;;;;;1.77;1.38;;;18.50;66.80;;;;;;5066259;28;20036;-79
2021/08/02 03:06:55;;;;;;;1.92;1.45;;;18.50;66.80;;;;;;5064936;28;20035;-80
2021/08/02 03:09:23;;;;;;;1.58;1.48;;;18.50;66.90;;;;;;5055344;28;20025;-80
2021/08/02 03:11:49;;;;;;;2.00;1.48;;;18.50;66.90;;;;;;5046793;28;20056;-80
2021/08/02 03:14:17;;;;;;;1.52;1.40;;;18.50;66.90;;;;;;5055440;28;20779;-80
2021/08/02 03:16:42;;;;;;;1.48;1.38;;;18.50;66.90;;;;;;5056831;28;20474;-79
2021/08/02 03:19:08;;;;;;;2.33;1.38;;;18.50;66.90;;;;;;5046840;28;20029;-80
2021/08/02 03:21:34;;;;;;;1.55;1.42;;;18.50;67.00;;;;;;5059275;28;20461;-79
2021/08/02 03:24:18;;;;;;;1.25;1.10;;;18.50;67.00;;;;;;5062050;28;20028;-80
2021/08/02 03:26:48;;;;;;;2.33;1.60;;;18.50;67.10;;;;;;5062047;28;20115;-79
2021/08/02 03:29:27;;;;;;;1.92;1.40;;;18.50;67.00;;;;;;5066403;28;20115;-79
2021/08/02 03:32:19;;;;;;;1.50;1.40;;;18.50;67.10;;;;;;5054616;28;20025;-79
2021/08/02 03:34:51;;;;;;;1.40;1.30;;;18.40;67.00;;;;;;5046250;28;20026;-79
2021/08/02 03:37:19;;;;;;;2.35;1.52;;;18.50;67.10;;;;;;5057130;28;20033;-79
2021/08/02 03:39:45;;;;;;;1.42;1.33;;;18.40;67.00;;;;;;5065847;28;20032;-79
2021/08/02 03:42:12;;;;;;;2.03;1.60;;;18.40;67.10;;;;;;5071725;28;20029;-79
2021/08/02 03:44:38;;;;;;;1.65;1.50;;;18.40;67.10;;;;;;5052218;28;20028;-79
2021/08/02 03:47:05;;;;;;;2.22;1.50;;;18.40;67.10;;;;;;5054542;28;20442;-80
2021/08/02 03:49:31;;;;;;;1.65;1.55;;;18.40;67.10;;;;;;5065659;28;20025;-79
2021/08/02 03:51:59;;;;;;;1.90;1.55;;;18.40;67.10;;;;;;5063524;28;20112;-80
2021/08/02 03:54:28;;;;;;;1.40;1.30;;;18.40;67.20;;;;;;5062974;28;20021;-79
2021/08/02 03:56:55;;;;;;;2.30;1.40;;;18.40;67.10;;;;;;5073997;28;20075;-80
2021/08/02 03:59:23;;;;;;;2.65;1.42;;;18.40;67.10;;;;;;5054533;28;20024;-79
2021/08/02 04:01:48;;;;;;;1.50;1.40;;;18.40;67.20;;;;;;5059586;28;20041;-80
2021/08/02 04:04:14;;;;;;;1.80;1.42;;;18.40;67.20;;;;;;5068096;28;20032;-80
2021/08/02 04:06:40;;;;;;;2.28;1.40;;;18.40;67.20;;;;;;5083263;28;20032;-79
2021/08/02 04:09:08;;;;;;;1.80;1.50;;;18.40;67.20;;;;;;5060110;28;20468;-80
2021/08/02 04:11:35;;;;;;;1.67;1.27;;;18.30;67.20;;;;;;5070236;28;20054;-79
2021/08/02 04:14:01;;;;;;;2.63;1.40;;;18.40;67.30;;;;;;5081366;28;20024;-79
2021/08/02 04:16:27;;;;;;;1.60;1.30;;;18.40;67.30;;;;;;5083336;28;20036;-79
2021/08/02 04:18:53;;;;;;;1.63;1.30;;;18.40;67.30;;;;;;5065149;28;20043;-81
2021/08/02 04:21:19;;;;;;;1.63;1.30;;;18.40;67.30;;;;;;5045295;28;20021;-79
2021/08/02 04:23:45;;;;;;;2.38;1.60;;;18.40;67.30;;;;;;5055594;28;20024;-79
2021/08/02 04:26:12;;;;;;;1.35;1.25;;;18.30;67.30;;;;;;5084479;28;20040;-79
2021/08/02 04:28:44;;;;;;;2.08;1.50;;;18.40;67.40;;;;;;5088065;28;20036;-79
2021/08/02 04:31:10;;;;;;;1.85;1.40;;;18.40;67.40;;;;;;5064768;28;20054;-80
2021/08/02 04:33:37;;;;;;;2.40;1.50;;;18.40;67.40;;;;;;5064941;28;20028;-80
2021/08/02 04:36:04;;;;;;;1.40;1.30;;;18.30;67.30;;;;;;5067230;28;20040;-79
2021/08/02 04:38:30;;;;;;;1.88;1.40;;;18.40;67.40;;;;;;5057521;28;20054;-79
2021/08/02 04:40:56;;;;;;;1.98;1.50;;;18.30;67.40;;;;;;5084620;28;20033;-81
2021/08/02 04:43:22;;;;;;;1.40;1.20;;;18.30;67.40;;;;;;5066320;28;20452;-80
2021/08/02 04:45:48;;;;;;;2.58;1.30;;;18.30;67.40;;;;;;5087548;28;20040;-79
2021/08/02 04:48:14;;;;;;;1.30;1.20;;;18.30;67.40;;;;;;5050687;28;20086;-80
2021/08/02 04:50:42;;;;;;;1.63;1.40;;;18.30;67.40;;;;;;5057412;28;20481;-81
2021/08/02 04:53:09;;;;;;;2.10;1.42;;;18.30;67.40;;;;;;5066390;28;20040;-80
2021/08/02 04:55:34;;;;;;;1.48;1.20;;;18.30;67.50;;;;;;5064278;28;20028;-81
2021/08/02 04:58:00;;;;;;;1.65;1.40;;;18.30;67.40;;;;;;5045523;28;20685;-81
2021/08/02 05:00:26;;;;;;;1.20;1.10;;;18.30;67.40;;;;;;5050169;28;20460;-82
2021/08/02 05:02:52;;;;;;;1.35;1.20;;;18.30;67.40;;;;;;5083252;28;20032;-81
2021/08/02 05:05:18;;;;;;;1.40;1.30;;;18.30;67.40;;;;;;5056959;28;20032;-81
2021/08/02 05:07:43;;;;;;;2.22;1.50;;;18.30;67.40;;;;;;5054054;28;20553;-81
2021/08/02 05:10:09;;;;;;;1.77;1.38;;;18.30;67.40;;;;;;5062160;28;20033;-80
2021/08/02 05:12:35;;;;;;;1.73;1.30;;;18.30;67.50;;;;;;5061885;28;20114;-80
2021/08/02 05:15:09;;;;;;;1.30;1.20;;;18.30;67.50;;;;;;5066363;28;20020;-80
2021/08/02 05:17:35;;;;;;;2.50;1.40;;;18.30;67.50;;;;;;5076667;28;20040;-81
2021/08/02 05:20:01;;;;;;;1.40;1.30;;;18.30;67.40;;;;;;5052874;28;20552;-80
2021/08/02 05:22:27;;;;;;;1.73;1.40;;;18.30;67.40;;;;;;5047335;28;20024;-79
2021/08/02 05:24:52;;;;;;;1.73;1.25;;;18.20;67.40;;;;;;5061560;28;20035;-80
2021/08/02 05:27:18;;;;;;;1.58;1.40;;;18.20;67.50;;;;;;5059966;28;20117;-79
2021/08/02 05:29:44;;;;;;;1.15;1.02;;;18.30;67.50;;;;;;5072071;28;20461;-79
2021/08/02 05:32:10;;;;;;;1.33;1.20;;;18.20;67.50;;;;;;5068386;28;20028;-80
2021/08/02 05:34:40;;;;;;;1.33;1.23;;;18.20;67.50;;;;;;5046994;28;20435;-79
2021/08/02 05:37:06;;;;;;;1.23;1.10;;;18.20;67.50;;;;;;5052032;28;20461;-82
2021/08/02 05:39:32;;;;;;;1.42;1.25;;;18.30;67.50;;;;;;5060424;28;20032;-79
2021/08/02 05:41:58;;;;;;;1.73;1.23;;;18.30;67.60;;;;;;5064584;28;20392;-80
2021/08/02 05:44:23;;;;;;;1.70;1.42;;;18.20;67.50;;;;;;5039859;28;20036;-79
2021/08/02 05:46:49;;;;;;;1.05;1.02;;;18.30;67.50;;;;;;5069853;28;20063;-79
2021/08/02 05:49:15;;;;;;;2.20;1.80;;;18.20;67.50;;;;;;5082357;28;20049;-79
2021/08/02 05:51:41;;;;;;;2.13;1.45;;;18.30;67.60;;;;;;5057215;28;20119;-80
2021/08/02 05:54:06;;;;;;;2.03;1.20;;;18.30;67.60;;;;;;5040539;28;20407;-80
2021/08/02 05:56:32;;;;;;;1.83;1.30;;;18.30;67.60;;;;;;5056710;28;20052;-80
2021/08/02 05:58:58;;;;;;;2.63;1.33;;;18.30;67.60;;;;;;5057289;28;20039;-80
2021/08/02 06:01:24;;;;;;;1.27;1.13;;;18.30;67.60;;;;;;5065621;28;20039;-81
2021/08/02 06:03:49;;;;;;;1.92;1.38;;;18.30;67.60;;;;;;5057251;28;20126;-80
2021/08/02 06:06:16;;;;;;;1.40;1.30;;;18.30;67.60;;;;;;5048777;28;20036;-79
2021/08/02 06:08:43;;;;;;;1.60;1.17;;;18.30;67.70;;;;;;5053674;28;20027;-80
2021/08/02 06:11:09;;;;;;;1.67;1.10;;;18.30;67.70;;;;;;5053773;28;20123;-79
2021/08/02 06:13:35;;;;;;;1.30;1.20;;;18.30;67.90;;;;;;5045459;28;20041;-79
2021/08/02 06:16:01;;;;;;;1.75;1.55;;;18.30;67.70;;;;;;5058153;28;20082;-79
2021/08/02 06:18:27;;;;;;;1.65;1.30;;;18.30;67.70;;;;;;5057135;28;20443;-79
2021/08/02 06:20:53;;;;;;;1.42;1.33;;;18.30;67.70;;;;;;5085798;28;20082;-78
2021/08/02 06:23:19;;;;;;;1.52;1.40;;;18.40;67.70;;;;;;5086747;28;20052;-79
2021/08/02 06:25:44;;;;;;;1.30;1.20;;;18.40;67.70;;;;;;5068363;28;20032;-79
2021/08/02 06:28:10;;;;;;;1.38;1.27;;;18.40;67.70;;;;;;5057222;28;20112;-79
2021/08/02 06:30:36;;;;;;;1.17;1.08;;;18.40;67.70;;;;;;5043955;28;20028;-79
2021/08/02 06:33:02;;;;;;;1.40;1.30;;;18.40;67.70;;;;;;5050160;28;20496;-78
2021/08/02 06:35:28;;;;;;;1.27;1.17;;;18.40;67.70;;;;;;5059980;28;20085;-79
2021/08/02 06:37:54;;;;;;;1.30;1.15;;;18.40;67.70;;;;;;5094942;28;20134;-79
2021/08/02 06:40:19;;;;;;;1.40;1.10;;;18.40;67.70;;;;;;5076937;28;20484;-78
2021/08/02 06:42:46;;;;;;;1.52;1.20;;;18.40;67.70;;;;;;5055608;28;20427;-79
2021/08/02 06:45:13;;;;;;;1.27;1.17;;;18.40;67.70;;;;;;5075765;28;20028;-79
2021/08/02 06:47:39;;;;;;;1.45;1.17;;;18.40;67.70;;;;;;5057791;28;20032;-80
2021/08/02 06:50:06;;;;;;;1.38;1.27;;;18.40;67.70;;;;;;5064476;28;20414;-79
2021/08/02 06:52:32;;;;;;;1.77;1.02;;;18.40;67.70;;;;;;5059848;28;20364;-79
2021/08/02 06:54:58;;;;;;;1.48;1.20;;;18.40;67.60;;;;;;5039141;28;20033;-80
2021/08/02 06:57:24;;;;;;;1.30;1.10;;;18.40;67.60;;;;;;5052692;28;20552;-79
2021/08/02 06:59:55;;;;;;;1.80;1.20;;;18.50;67.70;;;;;;5062188;28;20116;-78
2021/08/02 07:02:20;;;;;;;1.30;1.10;;;18.40;67.70;;;;;;5061115;28;20033;-80
2021/08/02 07:04:46;;;;;;;1.30;1.10;;;18.40;67.60;;;;;;5030076;28;20029;-79
2021/08/02 07:07:12;;;;;;;1.98;1.17;;;18.50;67.60;;;;;;5064614;28;20075;-80
2021/08/02 07:09:38;;;;;;;1.63;1.40;;;18.50;67.60;;;;;;5058309;28;20032;-79
2021/08/02 07:12:04;;;;;;;1.73;1.20;;;18.50;67.60;;;;;;5064194;28;20082;-80
2021/08/02 07:14:30;;;;;;;2.03;1.10;;;18.50;67.60;;;;;;5008876;28;20029;-79
2021/08/02 07:16:56;;;;;;;2.00;1.10;;;18.50;67.60;;;;;;5062816;28;20369;-79
2021/08/02 07:19:22;;;;;;;1.10;1.00;;;18.50;67.50;;;;;;5062592;28;20044;-80
2021/08/02 07:21:48;;;;;;;1.45;1.00;;;18.50;67.50;;;;;;5052431;28;20033;-79
2021/08/02 07:24:13;;;;;;;1.08;0.98;;;18.50;67.50;;;;;;5052175;28;20060;-80
2021/08/02 07:26:40;;;;;;;1.52;1.10;;;18.50;67.50;;;;;;5050231;28;20500;-79
2021/08/02 07:29:06;;;;;;;1.42;1.10;;;18.50;67.50;;;;;;5052620;28;20108;-79
2021/08/02 07:31:33;;;;;;;1.25;0.93;;;18.60;67.50;;;;;;5011199;28;20119;-79
2021/08/02 07:33:59;;;;;;;1.20;1.02;;;18.60;67.50;;;;;;5052167;28;20021;-79
2021/08/02 07:36:25;;;;;;;1.45;0.90;;;18.60;67.50;;;;;;5063807;28;20033;-80
2021/08/02 07:38:50;;;;;;;1.13;0.85;;;18.60;67.50;;;;;;5047269;28;20130;-79
2021/08/02 07:41:17;;;;;;;2.05;0.77;;;18.60;67.40;;;;;;5073293;28;20040;-79
2021/08/02 07:43:44;;;;;;;0.98;0.85;;;18.60;67.50;;;;;;5046863;28;20028;-79
2021/08/02 07:46:11;;;;;;;2.42;1.08;;;18.60;67.40;;;;;;5063652;28;20031;-79
2021/08/02 07:48:37;;;;;;;0.93;0.85;;;18.70;67.50;;;;;;5060776;28;20489;-79
2021/08/02 07:51:02;;;;;;;1.15;1.00;;;18.60;67.40;;;;;;5042327;28;20028;-79
2021/08/02 07:53:28;;;;;;;1.38;0.93;;;18.70;67.40;;;;;;5042271;28;20058;-79
2021/08/02 07:55:54;;;;;;;1.58;1.10;;;18.80;67.50;;;;;;5073985;28;20040;-78
2021/08/02 07:58:20;;;;;;;0.80;0.80;;;18.80;67.40;;;;;;5026268;28;20028;-78
2021/08/02 08:00:45;;;;;;;1.00;0.98;;;18.80;67.40;;;;;;5055193;28;20177;-81
2021/08/02 08:03:13;;;;;;;1.80;1.10;;;18.90;67.40;;;;;;5069160;28;20061;-81
2021/08/02 08:05:39;;;;;;;1.50;1.10;;;18.90;67.40;;;;;;5075040;28;20024;-80
2021/08/02 08:08:05;;;;;;;1.33;1.00;;;18.90;67.30;;;;;;5070712;28;20025;-80
2021/08/02 08:10:31;;;;;;;1.42;0.93;;;18.90;67.20;;;;;;5049549;28;20491;-80
2021/08/02 08:12:57;;;;;;;1.10;1.00;;;19.00;67.20;;;;;;5071533;28;20368;-82
2021/08/02 08:15:24;;;;;;;1.17;0.95;;;19.00;67.20;;;;;;5048873;28;20028;-82
2021/08/02 08:17:50;;;;;;;1.48;1.00;;;19.10;67.20;;;;;;5072229;28;20024;-81
2021/08/02 08:20:19;;;;;;;1.15;1.00;;;19.10;67.00;;;;;;5050811;28;20024;-82
2021/08/02 08:22:46;;;;;;;1.00;0.90;;;19.20;67.00;;;;;;5067026;28;20054;-81
2021/08/02 08:25:13;;;;;;;1.92;0.80;;;19.20;66.90;;;;;;5075168;28;20371;-81
2021/08/02 08:27:39;;;;;;;1.25;0.98;;;19.30;66.90;;;;;;5075174;28;20388;-82
2021/08/02 08:30:06;;;;;;;0.95;0.80;;;19.30;66.70;;;;;;5074984;28;20032;-82
2021/08/02 08:32:33;;;;;;;0.90;0.90;;;19.40;66.70;;;;;;5054942;28;20020;-82
2021/08/02 08:34:58;;;;;;;1.02;0.95;;;19.40;66.50;;;;;;5071144;28;20116;-81
2021/08/02 08:37:24;;;;;;;0.80;0.80;;;19.50;66.50;;;;;;5048267;28;20127;-81
2021/08/02 08:39:50;;;;;;;1.13;0.90;;;19.60;66.40;;;;;;5066427;28;20032;-81
2021/08/02 08:42:16;;;;;;;0.80;0.80;;;19.60;66.30;;;;;;5066746;28;20107;-80
2021/08/02 08:44:42;;;;;;;1.38;1.10;;;19.70;66.20;;;;;;5070778;28;20029;-81
2021/08/02 08:47:11;;;;;;;0.90;0.90;;;19.80;66.20;;;;;;5050623;28;20043;-81
2021/08/02 08:49:38;;;;;;;1.02;0.90;;;19.80;66.10;;;;;;5064757;28;20021;-81
2021/08/02 08:52:04;;;;;;;1.00;0.90;;;19.80;66.00;;;;;;5092967;28;20035;-81
2021/08/02 08:54:34;;;;;;;1.23;1.05;;;19.90;66.00;;;;;;5074570;28;20035;-81
2021/08/02 08:57:00;;;;;;;1.73;1.10;;;19.90;66.10;;;;;;5046106;28;20060;-81
2021/08/02 08:59:27;;;;;;;0.80;0.80;;;20.00;66.00;;;;;;5074603;28;20048;-81
2021/08/02 09:02:04;;;;;;;1.90;1.08;;;20.00;65.90;;;;;;5054521;28;20098;-81
2021/08/02 09:04:30;;;;;;;0.90;0.90;;;20.00;66.00;;;;;;5038306;28;20060;-82
2021/08/02 09:07:00;;;;;;;0.90;0.80;;;20.10;65.80;;;;;;5056763;28;20029;-81
2021/08/02 09:09:31;;;;;;;0.80;0.80;;;20.10;65.80;;;;;;5049884;28;20082;-82
2021/08/02 09:12:24;;;;;;;0.80;0.80;;;20.10;65.70;;;;;;5033226;28;20028;-81
2021/08/02 09:14:54;;;;;;;1.33;0.90;;;20.10;65.80;;;;;;5059777;28;20052;-82
2021/08/02 09:17:33;;;;;;;1.00;0.88;;;20.20;65.70;;;;;;5046097;28;20422;-82
2021/08/02 09:20:00;;;;;;;0.90;0.90;;;20.20;65.70;;;;;;5066100;28;20033;-81
2021/08/02 09:22:31;;;;;;;0.90;0.82;;;20.20;65.60;;;;;;5052180;28;20079;-81
2021/08/02 09:25:04;;;;;;;1.05;0.93;;;20.20;65.60;;;;;;5052065;28;20040;-82
2021/08/02 09:27:31;;;;;;;1.13;0.93;;;20.30;65.60;;;;;;5046762;28;20043;-81
2021/08/02 09:29:57;;;;;;;1.20;0.90;;;20.30;65.50;;;;;;5055056;28;20016;-79
2021/08/02 09:32:23;;;;;;;1.02;0.90;;;20.30;65.50;;;;;;5091996;28;20488;-79
2021/08/02 09:34:49;;;;;;;1.00;0.90;;;20.30;65.50;;;;;;5048536;28;20020;-79
2021/08/02 09:37:24;;;;;;;1.15;0.75;;;20.40;65.50;;;;;;5007906;28;20044;-80
2021/08/02 09:39:53;;;;;;;1.50;1.00;;;20.40;65.50;;;;;;5048948;28;20074;-80
2021/08/02 09:42:24;;;;;;;1.10;0.80;;;20.40;65.40;;;;;;5057396;28;20024;-81
2021/08/02 09:45:00;;;;;;;0.82;0.82;;;20.40;65.40;;;;;;5052859;28;20079;-83
2021/08/02 09:47:29;;;;;;;0.90;0.90;;;20.40;65.40;;;;;;5064101;28;20147;-83
2021/08/02 09:49:56;;;;;;;1.23;0.80;;;20.50;65.40;;;;;;5066472;28;20029;-84
2021/08/02 09:52:22;;;;;;;1.05;1.00;;;20.50;65.30;;;;;;5033935;28;20028;-83
2021/08/02 09:54:59;;;;;;;0.77;0.77;;;20.50;65.30;;;;;;5075217;28;20465;-83
2021/08/02 09:57:27;;;;;;;0.85;0.85;;;20.50;65.40;;;;;;5066572;28;20036;-82
2021/08/02 09:59:53;;;;;;;1.00;0.90;;;20.60;65.30;;;;;;5075451;28;20036;-83
2021/08/02 10:02:19;;;;;;;0.90;0.90;;;20.60;65.20;;;;;;5069932;28;20115;-83
2021/08/02 10:04:45;;;;;;;1.08;0.95;;;20.60;65.20;;;;;;5065519;28;20028;-83
2021/08/02 10:07:13;;;;;;;0.80;0.80;;;20.60;65.20;;;;;;5048477;28;20540;-84
2021/08/02 10:09:39;;;;;;;0.90;0.90;;;20.70;65.20;;;;;;5020991;28;20025;-82
2021/08/02 10:12:05;;;;;;;1.00;0.90;;;20.70;65.10;;;;;;5060267;28;20016;-82
2021/08/02 10:14:32;;;;;;;1.17;0.80;;;20.70;65.10;;;;;;5069113;28;20033;-82
2021/08/02 10:17:03;;;;;;;0.82;0.82;;;20.80;65.20;;;;;;5065107;28;20033;-85
2021/08/02 10:19:55;;;;;;;0.88;0.82;;;20.80;65.20;;;;;;5061246;28;20024;-81
2021/08/02 10:22:21;;;;;;;1.00;1.00;;;20.90;65.30;;;;;;5062019;28;20048;-83
2021/08/02 10:24:51;;;;;;;0.95;0.80;;;20.90;65.10;;;;;;5049007;28;20033;-81
2021/08/02 10:27:29;;;;;;;1.88;1.00;;;21.00;65.10;;;;;;5076858;28;20032;-80
2021/08/02 10:29:55;;;;;;;0.93;0.93;;;21.00;65.10;;;;;;5068714;28;20039;-80
2021/08/02 10:32:27;;;;;;;1.02;0.93;;;21.10;65.00;;;;;;5091307;28;20024;-80
2021/08/02 10:34:55;;;;;;;0.88;0.82;;;21.10;64.90;;;;;;5065558;28;20032;-79
2021/08/02 10:37:35;;;;;;;1.02;0.93;;;21.20;64.90;;;;;;5085264;28;20077;-79
2021/08/02 10:40:09;;;;;;;1.08;0.90;;;21.20;64.90;;;;;;5069650;28;20376;-80
2021/08/02 10:42:49;;;;;;;0.80;0.73;;;21.30;64.80;;;;;;5068220;28;20128;-79
2021/08/02 10:45:14;;;;;;;1.55;1.08;;;21.30;64.80;;;;;;5060225;28;20278;-79
2021/08/02 10:47:42;;;;;;;2.25;0.90;;;21.40;64.70;;;;;;5051408;28;20028;-79
2021/08/02 10:50:10;;;;;;;1.63;0.90;;;21.40;64.70;;;;;;5084822;28;20150;-80
2021/08/02 10:52:35;;;;;;;2.67;1.10;;;21.50;64.70;;;;;;5049873;28;20035;-80
2021/08/02 10:55:13;;;;;;;1.45;1.02;;;21.50;64.60;;;;;;5070360;28;20058;-79
2021/08/02 10:57:39;;;;;;;0.90;0.90;;;21.60;64.60;;;;;;5090571;28;20131;-80
2021/08/02 11:00:15;;;;;;;0.90;0.90;;;21.60;64.50;;;;;;5041229;28;20131;-81
2021/08/02 11:02:52;;;;;;;1.10;0.80;;;21.60;64.40;;;;;;5054373;28;20055;-80
2021/08/02 11:05:19;;;;;;;1.17;1.00;;;21.70;64.40;;;;;;5071019;28;20035;-79
2021/08/02 11:07:46;;;;;;;1.70;0.98;;;21.70;64.30;;;;;;5064829;28;20036;-79
2021/08/02 11:10:14;;;;;;;1.13;1.00;;;21.70;64.20;;;;;;5049669;28;20123;-79
2021/08/02 11:12:47;;;;;;;1.38;0.90;;;21.80;64.10;;;;;;5047320;28;20028;-80
2021/08/02 11:15:13;;;;;;;0.90;0.85;;;21.80;64.00;;;;;;5057072;28;20033;-80
2021/08/02 11:17:53;;;;;;;1.65;1.00;;;21.90;64.00;;;;;;5080697;28;20028;-80
2021/08/02 11:20:20;;;;;;;0.68;0.68;;;21.90;64.00;;;;;;5082644;28;20032;-79
2021/08/02 11:22:56;;;;;;;0.85;0.80;;;22.00;63.90;;;;;;5055142;28;20078;-79
2021/08/02 11:25:37;;;;;;;0.98;0.90;;;22.00;63.80;;;;;;5085403;28;20024;-79
2021/08/02 11:28:03;;;;;;;1.10;1.00;;;22.00;63.70;;;;;;5066989;28;20363;-79
2021/08/02 11:30:31;;;;;;;1.10;0.73;;;22.10;63.60;;;;;;5064581;28;20108;-79
2021/08/02 11:32:57;;;;;;;0.82;0.80;;;22.10;63.50;;;;;;5054845;28;20028;-78
2021/08/02 11:35:37;;;;;;;1.40;0.77;;;22.20;63.50;;;;;;5064881;28;20024;-78
2021/08/02 11:38:04;;;;;;;0.98;0.90;;;22.20;63.50;;;;;;5054229;28;20040;-77
2021/08/02 11:40:34;;;;;;;1.67;0.80;;;22.30;63.30;;;;;;5093627;28;20028;-78
2021/08/02 11:43:01;;;;;;;0.90;0.70;;;22.30;63.30;;;;;;5052317;28;20020;-78
2021/08/02 11:45:28;;;;;;;0.82;0.80;;;22.30;63.20;;;;;;5090450;28;20032;-78
2021/08/02 11:47:55;;;;;;;1.40;0.82;;;22.40;63.20;;;;;;5063473;28;20028;-78
2021/08/02 11:50:21;;;;;;;1.88;0.98;;;22.40;63.20;;;;;;5063687;28;20078;-78
2021/08/02 11:52:57;;;;;;;1.02;0.90;;;22.40;63.10;;;;;;5066289;28;20042;-78
2021/08/02 11:55:23;;;;;;;0.98;0.85;;;22.50;63.10;;;;;;5084942;28;20069;-78
2021/08/02 11:57:58;;;;;;;0.82;0.82;;;22.50;62.90;;;;;;5057586;28;20056;-78
2021/08/02 12:00:24;;;;;;;0.75;0.70;;;22.60;62.90;;;;;;5054990;28;20017;-78
2021/08/02 12:02:50;;;;;;;2.30;0.77;;;22.60;62.80;;;;;;5063196;28;20035;-79
2021/08/02 12:05:24;;;;;;;1.27;0.80;;;22.70;62.90;;;;;;5060712;28;20036;-78
2021/08/02 12:07:52;;;;;;;0.80;0.80;;;22.70;62.80;;;;;;5064819;28;20063;-78
2021/08/02 12:10:20;;;;;;;1.05;0.90;;;22.70;62.70;;;;;;5063198;28;20070;-77
2021/08/02 12:13:05;;;;;;;1.50;0.93;;;22.80;62.60;;;;;;5062185;28;20447;-79
2021/08/02 12:15:33;;;;;;;0.90;0.80;;;22.80;62.60;;;;;;5093158;28;20032;-78
2021/08/02 12:17:59;;;;;;;1.77;0.88;;;22.90;62.60;;;;;;5074308;28;20038;-77
2021/08/02 12:20:32;;;;;;;1.33;0.65;;;22.90;62.50;;;;;;5053609;28;20067;-78
2021/08/02 12:23:00;;;;;;;1.05;0.90;;;22.90;62.50;;;;;;5071292;28;20051;-78
2021/08/02 12:25:46;;;;;;;0.68;0.68;;;23.00;62.40;;;;;;5076604;28;20024;-77
2021/08/02 12:28:12;;;;;;;0.80;0.80;;;23.10;62.30;;;;;;5074679;28;20463;-78
2021/08/02 12:30:40;;;;;;;1.55;1.00;;;23.10;62.20;;;;;;5079471;28;20025;-77
2021/08/02 12:33:09;;;;;;;1.08;0.90;;;23.10;62.20;;;;;;5062891;28;20033;-78
2021/08/02 12:35:36;;;;;;;0.95;0.80;;;23.20;62.10;;;;;;5084250;28;20024;-77
2021/08/02 12:38:04;;;;;;;1.00;1.00;;;23.20;62.10;;;;;;5065732;28;20032;-78
2021/08/02 12:40:30;;;;;;;0.93;0.85;;;23.20;62.10;;;;;;5074336;28;20114;-77
2021/08/02 12:42:55;;;;;;;1.63;0.80;;;23.30;62.00;;;;;;5092186;28;20031;-77
2021/08/02 12:45:22;;;;;;;1.33;0.70;;;23.30;62.00;;;;;;5065993;28;20469;-78
2021/08/02 12:47:49;;;;;;;1.30;0.73;;;23.30;61.80;;;;;;5061977;28;20128;-77
2021/08/02 12:50:16;;;;;;;1.27;0.77;;;23.40;61.80;;;;;;5054263;28;20384;-79
2021/08/02 12:52:42;;;;;;;0.93;0.80;;;23.50;61.80;;;;;;5062932;28;20388;-78
2021/08/02 12:55:09;;;;;;;1.40;0.88;;;23.50;61.70;;;;;;5062833;28;20115;-79